Time;durP1;ratioP1;P1;durP2;ratioP2;P2;SDS_P1;SDS_P2;PMS_P1;PMS_P2;Temp;Humidity;BMP_temperature;BMP_pressure;BME280_temperature;BME280_humidity;BME280_pressure;Samples;Min_cycle;Max_cycle;Signal;HPM_P1;HPM_P2
2021/05/13 00:00:44;;;;;;;23.92;8.05;;;;;;;;;;5114683;28;20126;-64
2021/05/13 00:03:30;;;;;;;21.63;8.05;;;;;;;;;;5114765;28;20047;-63
2021/05/13 00:06:15;;;;;;;23.63;8.95;;;;;;;;;;5115663;28;20067;-63
2021/05/13 00:09:01;;;;;;;34.40;9.88;;;;;;;;;;5115718;28;20047;-63
2021/05/13 00:11:49;;;;;;;25.98;8.98;;;;;;;;;;5115383;28;20040;-62
2021/05/13 00:14:35;;;;;;;24.88;7.60;;;;;;;;;;5113898;28;20055;-62
2021/05/13 00:17:20;;;;;;;26.08;7.60;;;;;;;;;;5115243;28;20177;-63
2021/05/13 00:20:07;;;;;;;18.33;7.25;;;;;;;;;;5115037;28;20043;-63
2021/05/13 00:22:52;;;;;;;17.30;7.22;;;;;;;;;;5115633;28;20120;-62
2021/05/13 00:25:38;;;;;;;30.90;9.02;;;;;;;;;;5098946;28;20044;-62
2021/05/13 00:28:23;;;;;;;22.08;7.57;;;;;;;;;;5094790;28;20054;-63
2021/05/13 00:31:09;;;;;;;31.15;9.00;;;;;;;;;;5094728;28;20056;-63
2021/05/13 00:33:54;;;;;;;24.80;8.45;;;;;;;;;;5094764;28;20052;-62
2021/05/13 00:36:39;;;;;;;23.83;8.10;;;;;;;;;;5094334;28;20410;-63
2021/05/13 00:39:24;;;;;;;19.58;8.07;;;;;;;;;;5094658;28;20410;-63
2021/05/13 00:42:10;;;;;;;26.55;8.10;;;;;;;;;;5079536;28;20055;-62
2021/05/13 00:44:55;;;;;;;30.30;9.15;;;;;;;;;;5098151;28;20516;-62
2021/05/13 00:50:41;;;;;;;23.08;7.45;;;;;;;;;;5114627;28;20143;-63
2021/05/13 00:53:27;;;;;;;24.17;8.35;;;;;;;;;;5099254;28;20059;-63
2021/05/13 00:56:12;;;;;;;17.08;7.20;;;;;;;;;;5102486;28;20159;-62
2021/05/13 00:59:04;;;;;;;20.83;8.10;;;;;;;;;;5094337;28;20407;-62
2021/05/13 01:01:49;;;;;;;22.70;7.30;;;;;;;;;;5094127;28;20398;-62
2021/05/13 01:04:35;;;;;;;22.13;7.68;;;;;;;;;;5078981;28;20063;-62
2021/05/13 01:07:20;;;;;;;24.27;7.57;;;;;;;;;;5112454;28;20586;-63
2021/05/13 01:10:05;;;;;;;22.85;6.25;;;;;;;;;;5113747;28;20413;-63
2021/05/13 01:12:51;;;;;;;26.33;8.27;;;;;;;;;;5114355;28;20074;-63
2021/05/13 01:15:42;;;;;;;19.80;7.18;;;;;;;;;;5113039;28;20071;-62
2021/05/13 01:18:27;;;;;;;24.52;7.45;;;;;;;;;;5093665;28;20048;-62
2021/05/13 01:21:14;;;;;;;22.05;7.57;;;;;;;;;;5078477;28;20052;-63
2021/05/13 01:23:59;;;;;;;19.50;6.82;;;;;;;;;;5093801;28;20066;-63
2021/05/13 01:26:47;;;;;;;23.17;6.85;;;;;;;;;;5101026;28;20043;-64
2021/05/13 01:29:33;;;;;;;24.60;8.13;;;;;;;;;;5114002;28;20043;-62
2021/05/13 01:32:19;;;;;;;22.98;7.03;;;;;;;;;;5114086;28;20500;-63
2021/05/13 01:35:05;;;;;;;18.63;7.03;;;;;;;;;;5113843;28;20047;-63
2021/05/13 01:38:00;;;;;;;24.33;7.63;;;;;;;;;;5099592;28;20048;-63
2021/05/13 01:40:50;;;;;;;17.98;7.57;;;;;;;;;;5093322;28;20127;-63
2021/05/13 01:43:36;;;;;;;20.38;7.55;;;;;;;;;;5094470;28;20048;-62
2021/05/13 01:46:21;;;;;;;21.25;7.47;;;;;;;;;;5093426;28;20136;-62
2021/05/13 01:49:07;;;;;;;23.35;7.97;;;;;;;;;;5093329;28;20075;-64
2021/05/13 01:51:52;;;;;;;19.30;6.70;;;;;;;;;;5093164;28;20247;-64
2021/05/13 01:54:38;;;;;;;16.65;7.20;;;;;;;;;;5093100;28;20044;-63
2021/05/13 01:57:22;;;;;;;16.88;7.65;;;;;;;;;;5096965;28;20044;-62
2021/05/13 02:00:08;;;;;;;23.05;7.30;;;;;;;;;;5113027;28;20191;-63
2021/05/13 02:02:53;;;;;;;15.82;7.18;;;;;;;;;;5113388;28;20040;-64
2021/05/13 02:05:38;;;;;;;26.70;8.75;;;;;;;;;;5113245;28;20497;-62
2021/05/13 02:08:24;;;;;;;17.77;6.95;;;;;;;;;;5103167;28;20043;-63
2021/05/13 02:11:09;;;;;;;18.95;6.72;;;;;;;;;;5092803;28;20048;-62
2021/05/13 02:13:54;;;;;;;20.25;7.68;;;;;;;;;;5092742;28;20043;-62
2021/05/13 02:16:40;;;;;;;22.10;6.63;;;;;;;;;;5092652;28;20178;-62
2021/05/13 02:19:25;;;;;;;16.25;8.05;;;;;;;;;;5107868;28;20106;-62
2021/05/13 02:22:11;;;;;;;17.23;6.95;;;;;;;;;;5112598;28;20043;-62
2021/05/13 02:24:56;;;;;;;18.48;7.05;;;;;;;;;;5112938;28;20536;-62
2021/05/13 02:27:41;;;;;;;21.63;7.40;;;;;;;;;;5112704;28;20077;-62
2021/05/13 02:30:27;;;;;;;16.70;7.78;;;;;;;;;;5091180;28;20048;-62
2021/05/13 02:33:13;;;;;;;23.50;7.72;;;;;;;;;;5092475;28;20051;-62
2021/05/13 02:35:58;;;;;;;17.02;6.70;;;;;;;;;;5092426;28;20089;-63
2021/05/13 02:38:44;;;;;;;20.85;8.13;;;;;;;;;;5095919;28;20071;-62
2021/05/13 02:41:29;;;;;;;18.50;6.90;;;;;;;;;;5112485;28;20052;-63
2021/05/13 02:44:15;;;;;;;17.35;8.23;;;;;;;;;;5112754;28;20122;-62
2021/05/13 02:47:00;;;;;;;18.42;8.57;;;;;;;;;;5097164;28;20043;-62
2021/05/13 02:49:45;;;;;;;17.83;7.25;;;;;;;;;;5102774;28;20040;-63
2021/05/13 02:52:31;;;;;;;23.27;8.02;;;;;;;;;;5092328;28;20402;-62
2021/05/13 02:55:16;;;;;;;21.02;7.72;;;;;;;;;;5092320;28;20044;-63
2021/05/13 02:58:03;;;;;;;19.80;7.57;;;;;;;;;;5092040;28;20044;-63
2021/05/13 03:03:53;;;;;;;20.58;7.85;;;;;;;;;;5112623;28;20458;-62
2021/05/13 03:06:39;;;;;;;20.73;8.00;;;;;;;;;;5112467;28;20119;-63
2021/05/13 03:09:25;;;;;;;16.10;7.07;;;;;;;;;;5111321;28;20490;-62
2021/05/13 03:12:10;;;;;;;21.23;8.25;;;;;;;;;;5092267;28;20052;-62
2021/05/13 03:14:57;;;;;;;19.20;8.38;;;;;;;;;;5092410;28;20052;-62
2021/05/13 03:17:42;;;;;;;20.42;7.60;;;;;;;;;;5092005;28;20109;-62
2021/05/13 03:20:37;;;;;;;18.35;8.82;;;;;;;;;;5091738;28;20051;-63
2021/05/13 03:23:27;;;;;;;14.95;7.13;;;;;;;;;;5091844;28;20079;-63
2021/05/13 03:26:13;;;;;;;15.20;7.30;;;;;;;;;;5097505;28;20048;-63
2021/05/13 03:28:58;;;;;;;17.77;7.28;;;;;;;;;;5112248;28;20071;-63
2021/05/13 03:31:44;;;;;;;18.02;8.20;;;;;;;;;;5112055;28;20086;-63
2021/05/13 03:34:30;;;;;;;12.02;6.50;;;;;;;;;;5115134;28;20047;-62
2021/05/13 03:37:15;;;;;;;19.80;7.32;;;;;;;;;;5105094;28;20047;-62
2021/05/13 03:40:00;;;;;;;17.40;8.10;;;;;;;;;;5095764;28;20066;-62
2021/05/13 03:42:45;;;;;;;16.38;8.27;;;;;;;;;;5095860;28;20044;-63
2021/05/13 03:45:31;;;;;;;19.88;8.68;;;;;;;;;;5095677;28;20502;-63
2021/05/13 03:48:16;;;;;;;18.90;8.38;;;;;;;;;;5096686;28;20480;-62
2021/05/13 03:51:02;;;;;;;21.23;8.30;;;;;;;;;;5095501;28;20075;-62
2021/05/13 03:53:47;;;;;;;16.80;7.60;;;;;;;;;;5095650;28;20059;-63
2021/05/13 03:56:32;;;;;;;21.10;8.82;;;;;;;;;;5095427;28;20043;-62
2021/05/13 03:59:19;;;;;;;21.05;8.45;;;;;;;;;;5095410;28;20072;-63
2021/05/13 04:04:50;;;;;;;22.20;7.95;;;;;;;;;;5095316;28;20434;-63
2021/05/13 04:07:37;;;;;;;19.45;8.32;;;;;;;;;;5084644;28;20046;-62
2021/05/13 04:10:22;;;;;;;19.85;9.02;;;;;;;;;;5115464;28;20048;-62
2021/05/13 04:13:09;;;;;;;16.75;7.78;;;;;;;;;;5115471;28;20050;-62
2021/05/13 04:15:54;;;;;;;21.77;7.57;;;;;;;;;;5108660;28;20050;-62
2021/05/13 04:18:40;;;;;;;20.05;8.48;;;;;;;;;;5105604;28;20070;-62
2021/05/13 04:21:28;;;;;;;25.60;8.32;;;;;;;;;;5115139;28;20055;-62
2021/05/13 04:24:14;;;;;;;25.88;8.52;;;;;;;;;;5115449;28;20066;-63
2021/05/13 04:26:59;;;;;;;19.27;9.68;;;;;;;;;;5115265;28;20057;-63
2021/05/13 04:29:44;;;;;;;20.58;8.18;;;;;;;;;;5097833;28;20047;-62
2021/05/13 04:32:29;;;;;;;20.40;8.80;;;;;;;;;;5094865;28;20048;-62
2021/05/13 04:35:17;;;;;;;14.80;8.52;;;;;;;;;;5094757;28;20093;-62
2021/05/13 04:38:02;;;;;;;16.70;8.10;;;;;;;;;;5094310;28;20048;-62
2021/05/13 04:40:50;;;;;;;17.67;8.13;;;;;;;;;;5094471;28;20048;-62
2021/05/13 04:43:36;;;;;;;22.90;10.20;;;;;;;;;;5094578;28;20102;-62
2021/05/13 04:46:23;;;;;;;17.80;8.52;;;;;;;;;;5093787;28;20044;-62
2021/05/13 04:51:54;;;;;;;18.60;9.10;;;;;;;;;;5114909;28;20047;-62
2021/05/13 04:54:39;;;;;;;21.25;9.23;;;;;;;;;;5114778;28;20047;-63
2021/05/13 04:57:25;;;;;;;15.25;8.00;;;;;;;;;;5114781;28;20119;-63
2021/05/13 05:00:11;;;;;;;23.35;10.15;;;;;;;;;;5103425;28;20075;-62
2021/05/13 05:02:56;;;;;;;22.30;9.00;;;;;;;;;;5094243;28;20048;-62
2021/05/13 05:05:42;;;;;;;18.02;9.25;;;;;;;;;;5094389;28;20070;-63
2021/05/13 05:08:27;;;;;;;14.23;7.97;;;;;;;;;;5094190;28;20048;-62
2021/05/13 05:11:14;;;;;;;19.05;8.40;;;;;;;;;;5110718;28;20497;-62
2021/05/13 05:13:59;;;;;;;17.02;8.07;;;;;;;;;;5105442;28;20040;-63
2021/05/13 05:16:45;;;;;;;17.15;7.35;;;;;;;;;;5114514;28;20047;-62
2021/05/13 05:19:31;;;;;;;16.40;8.98;;;;;;;;;;5113056;28;20043;-64
2021/05/13 05:22:17;;;;;;;12.10;7.82;;;;;;;;;;5094022;28;20066;-63
2021/05/13 05:25:02;;;;;;;14.25;7.40;;;;;;;;;;5093996;28;20072;-63
2021/05/13 05:27:47;;;;;;;15.55;7.05;;;;;;;;;;5093689;28;20455;-63
2021/05/13 05:30:33;;;;;;;13.52;6.78;;;;;;;;;;5094520;28;20414;-63
2021/05/13 05:33:19;;;;;;;12.80;7.40;;;;;;;;;;5093730;28;20118;-63
2021/05/13 05:36:04;;;;;;;14.95;6.10;;;;;;;;;;5135194;22;20048;-63
2021/05/13 05:38:50;;;;;;;13.25;5.47;;;;;;;;;;5091890;28;20210;-64
2021/05/13 05:41:37;;;;;;;12.00;6.05;;;;;;;;;;5092854;28;20052;-63
2021/05/13 05:44:23;;;;;;;13.02;5.47;;;;;;;;;;5093465;28;20101;-63
2021/05/13 05:47:11;;;;;;;9.30;5.47;;;;;;;;;;5093149;28;20044;-63
2021/05/13 05:49:56;;;;;;;11.15;5.22;;;;;;;;;;5092505;28;20044;-63
2021/05/13 05:52:43;;;;;;;13.15;4.45;;;;;;;;;;5072513;28;20048;-64
2021/05/13 05:55:31;;;;;;;11.77;5.32;;;;;;;;;;5073020;28;20048;-64
2021/05/13 05:58:17;;;;;;;12.02;5.07;;;;;;;;;;5071271;28;20509;-64
2021/05/13 06:01:02;;;;;;;11.82;5.00;;;;;;;;;;5073780;28;20040;-64
2021/05/13 06:03:48;;;;;;;12.43;4.70;;;;;;;;;;5072397;28;20115;-64
2021/05/13 06:06:33;;;;;;;15.98;4.90;;;;;;;;;;5072536;28;20127;-64
2021/05/13 06:09:18;;;;;;;13.32;4.75;;;;;;;;;;5072401;28;20056;-64
2021/05/13 06:12:04;;;;;;;11.60;4.25;;;;;;;;;;5085039;28;20052;-64
2021/05/13 06:14:50;;;;;;;10.90;4.18;;;;;;;;;;5092909;28;20135;-63
2021/05/13 06:17:36;;;;;;;10.80;4.10;;;;;;;;;;5092620;28;20066;-63
2021/05/13 06:20:22;;;;;;;6.55;3.55;;;;;;;;;;5092389;28;20076;-63
2021/05/13 06:23:10;;;;;;;8.02;3.78;;;;;;;;;;5074709;28;20056;-64
2021/05/13 06:25:55;;;;;;;9.88;3.90;;;;;;;;;;5072376;28;20047;-64
2021/05/13 06:28:42;;;;;;;10.93;3.80;;;;;;;;;;5072272;28;20052;-64
2021/05/13 06:31:29;;;;;;;9.10;3.53;;;;;;;;;;5072987;28;20078;-64
2021/05/13 06:34:15;;;;;;;10.35;3.28;;;;;;;;;;5092674;28;20063;-64
2021/05/13 06:37:01;;;;;;;9.77;2.72;;;;;;;;;;5092321;28;20101;-64
2021/05/13 06:39:46;;;;;;;11.77;3.38;;;;;;;;;;5091973;28;20478;-64
2021/05/13 06:42:38;;;;;;;9.68;2.78;;;;;;;;;;5085117;28;20051;-64
2021/05/13 06:45:24;;;;;;;8.38;2.20;;;;;;;;;;5072221;28;20049;-64
2021/05/13 06:48:10;;;;;;;13.80;2.85;;;;;;;;;;5072178;28;20055;-64
2021/05/13 06:50:56;;;;;;;7.68;2.47;;;;;;;;;;5071626;28;20052;-64
2021/05/13 06:53:42;;;;;;;10.95;3.08;;;;;;;;;;5084528;28;20514;-63
2021/05/13 06:56:28;;;;;;;7.45;2.28;;;;;;;;;;5092223;28;20080;-63
2021/05/13 06:59:13;;;;;;;8.68;3.38;;;;;;;;;;5092220;28;20694;-63
2021/05/13 07:01:59;;;;;;;8.05;2.55;;;;;;;;;;5090339;28;20044;-64
2021/05/13 07:04:45;;;;;;;11.77;3.30;;;;;;;;;;5092228;28;20056;-64
2021/05/13 07:07:31;;;;;;;10.88;2.47;;;;;;;;;;5092013;28;20105;-64
2021/05/13 07:10:16;;;;;;;6.75;2.85;;;;;;;;;;5097504;28;20139;-64
2021/05/13 07:13:02;;;;;;;13.57;3.63;;;;;;;;;;5078477;28;20498;-63
2021/05/13 07:15:47;;;;;;;11.65;2.97;;;;;;;;;;5078575;28;20044;-64
2021/05/13 07:18:33;;;;;;;12.75;2.65;;;;;;;;;;5078081;28;20410;-64
2021/05/13 07:21:18;;;;;;;10.35;3.08;;;;;;;;;;5084377;28;20040;-63
2021/05/13 07:24:04;;;;;;;14.15;3.35;;;;;;;;;;5098634;28;20119;-64
2021/05/13 07:26:49;;;;;;;2.92;1.40;;;;;;;;;;5098597;28;20516;-63
2021/05/13 07:29:34;;;;;;;12.73;3.45;;;;;;;;;;5098598;28;20059;-64
2021/05/13 07:32:19;;;;;;;12.43;2.92;;;;;;;;;;5086471;28;20053;-64
2021/05/13 07:35:05;;;;;;;5.72;2.53;;;;;;;;;;5078442;28;20121;-63
2021/05/13 07:37:51;;;;;;;7.13;1.35;;;;;;;;;;5077998;28;20045;-64
2021/05/13 07:40:37;;;;;;;7.38;1.40;;;;;;;;;;5078014;28;20569;-64
2021/05/13 07:43:22;;;;;;;6.47;1.65;;;;;;;;;;5097376;28;20044;-66
2021/05/13 07:46:08;;;;;;;4.70;1.27;;;;;;;;;;5100269;28;20040;-65
2021/05/13 07:48:53;;;;;;;5.70;0.95;;;;;;;;;;5103062;28;20131;-64
2021/05/13 07:51:41;;;;;;;4.95;1.05;;;;;;;;;;5098205;28;20185;-65
2021/05/13 07:54:28;;;;;;;2.20;0.73;;;;;;;;;;5101557;28;20123;-65
2021/05/13 07:57:13;;;;;;;6.18;1.58;;;;;;;;;;5100295;28;20052;-64
2021/05/13 07:59:58;;;;;;;3.65;0.88;;;;;;;;;;5102014;28;20044;-65
2021/05/13 08:02:44;;;;;;;4.72;1.35;;;;;;;;;;5063062;28;20053;-65
2021/05/13 08:05:29;;;;;;;4.93;0.95;;;;;;;;;;5062487;28;20049;-64
2021/05/13 08:08:15;;;;;;;2.67;0.80;;;;;;;;;;5063494;28;20063;-65
2021/05/13 08:11:00;;;;;;;6.40;1.40;;;;;;;;;;5068746;28;20043;-65
2021/05/13 08:13:46;;;;;;;3.08;0.95;;;;;;;;;;5099983;28;20036;-65
2021/05/13 08:16:31;;;;;;;5.90;1.27;;;;;;;;;;5101427;28;20047;-66
2021/05/13 08:19:16;;;;;;;3.50;1.00;;;;;;;;;;5101592;28;20036;-65
2021/05/13 08:22:02;;;;;;;3.70;1.35;;;;;;;;;;5086695;28;20479;-65
2021/05/13 08:24:47;;;;;;;3.05;1.20;;;;;;;;;;5077103;28;20048;-64
2021/05/13 08:27:32;;;;;;;3.78;1.30;;;;;;;;;;5076817;28;20040;-65
2021/05/13 08:30:18;;;;;;;6.65;0.98;;;;;;;;;;5075455;28;20510;-63
2021/05/13 08:33:04;;;;;;;7.63;2.70;;;;;;;;;;5092647;28;20040;-65
2021/05/13 08:35:49;;;;;;;6.18;1.75;;;;;;;;;;5095344;28;20501;-65
2021/05/13 08:38:35;;;;;;;4.43;1.38;;;;;;;;;;5095863;28;20220;-65
2021/05/13 08:41:20;;;;;;;4.72;1.65;;;;;;;;;;5095742;28;20040;-64
2021/05/13 08:44:08;;;;;;;7.70;2.40;;;;;;;;;;5055060;28;20059;-65
2021/05/13 08:46:53;;;;;;;9.10;2.47;;;;;;;;;;5055899;28;20037;-65
2021/05/13 08:49:39;;;;;;;5.72;2.40;;;;;;;;;;5068469;28;20045;-65
2021/05/13 08:52:25;;;;;;;6.43;1.98;;;;;;;;;;5085903;28;20071;-63
2021/05/13 08:55:11;;;;;;;9.52;1.98;;;;;;;;;;5074075;28;20041;-63
2021/05/13 08:57:56;;;;;;;4.47;1.70;;;;;;;;;;5073842;28;20048;-63
2021/05/13 09:00:51;;;;;;;4.13;1.60;;;;;;;;;;5073661;28;20056;-64
2021/05/13 09:03:37;;;;;;;8.30;2.42;;;;;;;;;;5085035;28;20055;-63
2021/05/13 09:06:31;;;;;;;7.65;1.90;;;;;;;;;;5078665;28;20494;-63
2021/05/13 09:09:17;;;;;;;4.68;2.28;;;;;;;;;;5094027;28;20044;-64
2021/05/13 09:12:02;;;;;;;8.63;2.30;;;;;;;;;;5094186;28;20052;-63
2021/05/13 09:14:55;;;;;;;4.00;1.58;;;;;;;;;;5076055;28;20048;-64
2021/05/13 09:17:42;;;;;;;4.18;1.70;;;;;;;;;;5073528;28;20402;-64
2021/05/13 09:20:38;;;;;;;4.57;1.75;;;;;;;;;;5073516;28;20048;-64
2021/05/13 09:23:26;;;;;;;4.63;1.73;;;;;;;;;;5076941;28;20119;-63
2021/05/13 09:26:12;;;;;;;5.35;1.85;;;;;;;;;;5093622;28;20478;-64
2021/05/13 09:29:10;;;;;;;5.75;2.08;;;;;;;;;;5093633;28;20048;-65
2021/05/13 09:31:55;;;;;;;6.13;1.73;;;;;;;;;;5093443;28;20052;-65
2021/05/13 09:34:40;;;;;;;5.95;2.25;;;;;;;;;;5082254;28;20048;-65
2021/05/13 09:37:35;;;;;;;6.13;2.00;;;;;;;;;;5073057;28;20040;-65
2021/05/13 09:40:27;;;;;;;5.80;2.08;;;;;;;;;;5072821;28;20044;-65
2021/05/13 09:43:12;;;;;;;6.30;1.80;;;;;;;;;;5073315;28;20045;-64
2021/05/13 09:45:58;;;;;;;5.55;1.63;;;;;;;;;;5090922;28;20494;-65
2021/05/13 09:48:44;;;;;;;7.03;2.10;;;;;;;;;;5093327;28;20056;-65
2021/05/13 09:51:30;;;;;;;6.93;2.28;;;;;;;;;;5092864;28;20112;-65
2021/05/13 09:54:19;;;;;;;5.32;1.92;;;;;;;;;;5091904;28;20512;-64
2021/05/13 09:57:05;;;;;;;5.88;2.20;;;;;;;;;;5073788;28;20449;-65
2021/05/13 09:59:51;;;;;;;6.90;2.47;;;;;;;;;;5058764;28;20138;-64
2021/05/13 10:02:36;;;;;;;6.00;1.73;;;;;;;;;;5075076;28;20044;-66
2021/05/13 10:05:21;;;;;;;4.18;1.77;;;;;;;;;;5082284;28;20047;-65
2021/05/13 10:08:07;;;;;;;7.15;1.90;;;;;;;;;;5094186;28;20051;-65
2021/05/13 10:10:52;;;;;;;6.93;2.40;;;;;;;;;;5093351;28;20493;-65
2021/05/13 10:13:37;;;;;;;5.30;2.08;;;;;;;;;;5079212;28;20040;-65
2021/05/13 10:16:22;;;;;;;9.07;2.45;;;;;;;;;;5080399;28;20043;-65
2021/05/13 10:19:21;;;;;;;6.20;2.00;;;;;;;;;;5059268;28;20052;-65
2021/05/13 10:22:06;;;;;;;8.38;2.50;;;;;;;;;;5073300;28;20041;-64
2021/05/13 10:25:18;;;;;;;9.18;3.53;;;;;;;;;;5059128;28;20047;-66
2021/05/13 10:28:04;;;;;;;6.45;1.95;;;;;;;;;;5058605;28;20048;-65
2021/05/13 10:30:58;;;;;;;8.48;2.55;;;;;;;;;;5075073;28;20054;-65
2021/05/13 10:33:48;;;;;;;4.72;1.70;;;;;;;;;;5073046;28;20055;-65
2021/05/13 10:36:33;;;;;;;6.85;2.13;;;;;;;;;;5080392;28;20083;-65
2021/05/13 10:39:18;;;;;;;8.82;1.95;;;;;;;;;;5076795;28;20036;-64
2021/05/13 10:42:23;;;;;;;6.60;1.73;;;;;;;;;;5092219;28;20040;-64
2021/05/13 10:45:26;;;;;;;7.38;1.80;;;;;;;;;;5092185;28;20048;-64
2021/05/13 10:48:26;;;;;;;5.50;1.52;;;;;;;;;;5072490;28;20037;-64
2021/05/13 10:51:13;;;;;;;6.97;2.08;;;;;;;;;;5071655;28;20052;-64
2021/05/13 10:53:58;;;;;;;4.72;1.88;;;;;;;;;;5057077;28;20487;-64
2021/05/13 10:56:43;;;;;;;7.07;1.83;;;;;;;;;;5075978;28;20069;-64
2021/05/13 10:59:29;;;;;;;4.60;1.45;;;;;;;;;;5091726;28;20048;-64
2021/05/13 11:02:33;;;;;;;5.18;1.50;;;;;;;;;;5084798;28;20048;-64
2021/05/13 11:05:30;;;;;;;6.18;1.40;;;;;;;;;;5065988;28;20044;-64
2021/05/13 11:08:18;;;;;;;6.07;2.20;;;;;;;;;;5085957;28;20544;-65
2021/05/13 11:11:03;;;;;;;6.65;2.03;;;;;;;;;;5091108;28;20040;-64
2021/05/13 11:13:51;;;;;;;4.13;1.23;;;;;;;;;;5072015;28;20044;-66
2021/05/13 11:16:45;;;;;;;4.68;1.27;;;;;;;;;;5074558;28;20048;-65
2021/05/13 11:19:30;;;;;;;6.85;1.60;;;;;;;;;;5063067;28;20041;-65
2021/05/13 11:22:16;;;;;;;5.63;1.95;;;;;;;;;;5070708;28;20036;-62
2021/05/13 11:25:01;;;;;;;3.67;1.58;;;;;;;;;;5056402;28;20045;-62
2021/05/13 11:27:46;;;;;;;4.18;1.25;;;;;;;;;;5059878;28;20036;-64
2021/05/13 11:30:31;;;;;;;5.05;1.38;;;;;;;;;;5076108;28;20064;-65
2021/05/13 11:33:17;;;;;;;7.22;1.25;;;;;;;;;;5091805;28;20048;-63
2021/05/13 11:36:03;;;;;;;5.30;1.40;;;;;;;;;;5089857;28;20052;-65
2021/05/13 11:38:52;;;;;;;6.47;1.90;;;;;;;;;;5084660;22;20049;-64
2021/05/13 11:41:38;;;;;;;3.53;1.52;;;;;;;;;;5046617;28;20451;-64
2021/05/13 11:44:23;;;;;;;4.40;1.40;;;;;;;;;;5032533;28;20070;-64
2021/05/13 11:47:08;;;;;;;6.97;1.65;;;;;;;;;;5039813;28;20041;-64
2021/05/13 11:49:54;;;;;;;7.15;1.83;;;;;;;;;;5031385;28;20057;-64
2021/05/13 11:52:58;;;;;;;4.57;1.13;;;;;;;;;;5031397;28;20061;-64
2021/05/13 11:55:44;;;;;;;6.00;1.35;;;;;;;;;;5012292;28;20148;-62
2021/05/13 11:58:35;;;;;;;4.88;1.45;;;;;;;;;;5015132;28;20432;-61
2021/05/13 12:01:32;;;;;;;2.85;1.08;;;;;;;;;;5015130;28;20061;-61
2021/05/13 12:04:20;;;;;;;4.90;1.13;;;;;;;;;;5021566;28;20045;-61
2021/05/13 12:07:07;;;;;;;4.65;1.45;;;;;;;;;;5015197;28;20061;-61
2021/05/13 12:09:53;;;;;;;4.55;1.08;;;;;;;;;;5014758;28;20133;-61
2021/05/13 12:12:39;;;;;;;3.35;1.20;;;;;;;;;;5015111;28;20050;-61
2021/05/13 12:15:24;;;;;;;4.45;1.42;;;;;;;;;;5014908;28;20513;-61
2021/05/13 12:18:10;;;;;;;3.97;1.33;;;;;;;;;;5021276;28;20046;-61
2021/05/13 12:20:55;;;;;;;4.97;1.20;;;;;;;;;;5033777;28;20049;-61
2021/05/13 12:23:41;;;;;;;3.80;1.30;;;;;;;;;;5033880;28;20645;-62
2021/05/13 12:26:27;;;;;;;3.33;1.30;;;;;;;;;;5015489;28;20120;-62
2021/05/13 12:29:13;;;;;;;3.30;1.77;;;;;;;;;;5000447;28;20050;-63
2021/05/13 12:31:58;;;;;;;3.72;1.27;;;;;;;;;;5007144;28;20045;-62
2021/05/13 12:34:43;;;;;;;4.75;1.30;;;;;;;;;;5034646;28;20107;-62
2021/05/13 12:37:29;;;;;;;4.95;0.98;;;;;;;;;;5034246;28;20191;-62
2021/05/13 12:40:14;;;;;;;3.60;1.45;;;;;;;;;;5015632;28;20046;-63
2021/05/13 12:43:09;;;;;;;3.78;1.55;;;;;;;;;;5014724;28;20045;-62
2021/05/13 12:45:55;;;;;;;3.55;0.80;;;;;;;;;;5022744;28;20045;-62
2021/05/13 12:48:40;;;;;;;4.78;1.30;;;;;;;;;;5020838;28;20132;-62
2021/05/13 12:51:26;;;;;;;2.75;1.08;;;;;;;;;;5020290;28;20121;-62
2021/05/13 12:54:18;;;;;;;4.70;1.15;;;;;;;;;;5019264;28;20053;-62
2021/05/13 12:57:14;;;;;;;3.03;1.07;;;;;;;;;;5025030;28;20459;-62
2021/05/13 12:59:59;;;;;;;2.35;1.02;;;;;;;;;;5014098;28;20320;-62
2021/05/13 13:02:45;;;;;;;4.43;1.30;;;;;;;;;;5025501;28;20076;-62
2021/05/13 13:05:30;;;;;;;2.45;1.10;;;;;;;;;;5034251;28;20053;-62
2021/05/13 13:08:36;;;;;;;3.75;1.25;;;;;;;;;;5032275;28;20084;-62
2021/05/13 13:11:34;;;;;;;3.78;1.10;;;;;;;;;;5033705;28;20049;-62
2021/05/13 13:14:30;;;;;;;3.20;1.08;;;;;;;;;;5033866;28;20049;-62
2021/05/13 13:17:19;;;;;;;3.03;1.00;;;;;;;;;;5013885;28;20081;-62
2021/05/13 13:20:06;;;;;;;6.82;1.58;;;;;;;;;;5012500;28;20042;-62
2021/05/13 13:22:51;;;;;;;6.65;1.35;;;;;;;;;;5019405;28;20053;-61
2021/05/13 13:25:36;;;;;;;3.08;1.48;;;;;;;;;;5016182;28;20046;-62
2021/05/13 13:28:21;;;;;;;2.85;1.00;;;;;;;;;;5029812;28;20511;-63
2021/05/13 13:31:19;;;;;;;3.35;1.00;;;;;;;;;;5011699;28;20396;-62
2021/05/13 13:34:04;;;;;;;2.88;1.02;;;;;;;;;;5011729;28;20487;-62
2021/05/13 13:36:50;;;;;;;4.35;1.10;;;;;;;;;;5010428;28;20080;-62
2021/05/13 13:39:35;;;;;;;6.47;1.50;;;;;;;;;;5012158;28;20053;-63
2021/05/13 13:42:20;;;;;;;2.90;1.30;;;;;;;;;;5014756;28;20042;-63
2021/05/13 13:45:06;;;;;;;4.25;1.73;;;;;;;;;;5031235;28;20073;-63
2021/05/13 13:47:52;;;;;;;4.45;1.67;;;;;;;;;;5030834;28;20049;-62
2021/05/13 13:50:38;;;;;;;4.75;1.90;;;;;;;;;;5016852;28;20049;-61
2021/05/13 13:53:24;;;;;;;3.55;1.48;;;;;;;;;;5020167;28;20053;-62
2021/05/13 13:56:09;;;;;;;5.15;2.05;;;;;;;;;;5018170;28;20050;-62
2021/05/13 13:58:54;;;;;;;4.75;1.77;;;;;;;;;;5028521;28;20053;-63
2021/05/13 14:01:40;;;;;;;4.25;2.03;;;;;;;;;;5016234;28;20054;-63
2021/05/13 14:04:26;;;;;;;4.32;1.60;;;;;;;;;;5011120;28;20518;-63
2021/05/13 14:07:11;;;;;;;5.22;1.52;;;;;;;;;;5012550;28;20532;-62
2021/05/13 14:09:56;;;;;;;5.57;2.03;;;;;;;;;;5010300;28;20073;-62
2021/05/13 14:12:41;;;;;;;7.43;2.35;;;;;;;;;;5011673;28;20046;-62
2021/05/13 14:15:27;;;;;;;3.17;1.52;;;;;;;;;;5011204;28;20042;-63
2021/05/13 14:18:13;;;;;;;4.78;1.67;;;;;;;;;;5010527;28;20046;-63
2021/05/13 14:20:58;;;;;;;4.80;1.92;;;;;;;;;;5020188;28;20488;-63
2021/05/13 14:23:43;;;;;;;6.18;2.10;;;;;;;;;;5024990;28;20049;-65
2021/05/13 14:26:28;;;;;;;3.47;1.38;;;;;;;;;;5028329;28;20042;-65
2021/05/13 14:29:13;;;;;;;6.70;2.10;;;;;;;;;;5030320;28;20138;-64
2021/05/13 14:31:59;;;;;;;7.50;1.98;;;;;;;;;;5030086;28;20052;-65
2021/05/13 14:34:44;;;;;;;5.63;2.28;;;;;;;;;;5012552;28;20041;-65
2021/05/13 14:37:30;;;;;;;6.03;1.90;;;;;;;;;;5022511;28;20038;-65
2021/05/13 14:40:15;;;;;;;5.93;2.00;;;;;;;;;;5028992;28;20053;-64
2021/05/13 14:43:00;;;;;;;2.17;1.23;;;;;;;;;;5029538;28;20503;-65
2021/05/13 14:45:46;;;;;;;5.07;1.50;;;;;;;;;;5029547;28;20053;-65
2021/05/13 14:48:45;;;;;;;6.40;1.60;;;;;;;;;;5010336;28;20041;-65
2021/05/13 14:51:30;;;;;;;3.13;1.20;;;;;;;;;;5009974;28;20050;-65
2021/05/13 14:54:16;;;;;;;5.07;1.40;;;;;;;;;;5021630;28;20108;-63
2021/05/13 14:57:09;;;;;;;5.32;1.50;;;;;;;;;;5015572;28;20123;-63
2021/05/13 14:59:54;;;;;;;3.53;1.00;;;;;;;;;;5025094;28;20392;-62
2021/05/13 15:02:39;;;;;;;4.78;1.45;;;;;;;;;;5009608;28;20496;-62
2021/05/13 15:05:25;;;;;;;3.35;1.15;;;;;;;;;;4995322;28;20050;-63
2021/05/13 15:08:10;;;;;;;3.05;1.40;;;;;;;;;;5016545;28;20124;-63
2021/05/13 15:10:56;;;;;;;5.32;1.50;;;;;;;;;;5017142;28;20571;-62
2021/05/13 15:13:42;;;;;;;5.07;1.55;;;;;;;;;;5009496;28;20125;-62
2021/05/13 15:16:27;;;;;;;4.13;1.25;;;;;;;;;;5015893;28;20045;-63
2021/05/13 15:19:12;;;;;;;3.70;2.13;;;;;;;;;;5030231;28;20046;-62
2021/05/13 15:21:58;;;;;;;3.75;1.67;;;;;;;;;;5013222;28;20062;-62
2021/05/13 15:24:43;;;;;;;5.28;1.80;;;;;;;;;;5024544;28;20174;-62
2021/05/13 15:27:28;;;;;;;4.82;1.90;;;;;;;;;;5030243;28;20100;-62
2021/05/13 15:30:14;;;;;;;6.50;2.17;;;;;;;;;;5019570;28;20081;-63
2021/05/13 15:32:59;;;;;;;3.33;1.75;;;;;;;;;;5018738;28;20052;-62
2021/05/13 15:35:44;;;;;;;2.13;1.23;;;;;;;;;;5023641;28;20052;-61
2021/05/13 15:38:29;;;;;;;3.00;1.45;;;;;;;;;;5021466;28;20038;-62
2021/05/13 15:41:15;;;;;;;4.53;1.75;;;;;;;;;;5024007;28;20062;-62
2021/05/13 15:44:00;;;;;;;6.53;2.00;;;;;;;;;;5023304;28;20109;-62
2021/05/13 15:46:45;;;;;;;2.97;1.75;;;;;;;;;;5023386;28;20168;-62
2021/05/13 15:49:31;;;;;;;3.70;1.70;;;;;;;;;;5024089;28;20045;-63
2021/05/13 15:52:16;;;;;;;3.00;1.17;;;;;;;;;;5022749;28;20057;-61
2021/05/13 15:55:01;;;;;;;5.47;1.42;;;;;;;;;;5006614;28;20045;-61
2021/05/13 15:57:46;;;;;;;3.17;1.63;;;;;;;;;;5020224;28;20551;-61
2021/05/13 16:00:32;;;;;;;4.00;1.80;;;;;;;;;;5006634;28;20041;-61
2021/05/13 16:03:17;;;;;;;3.83;1.33;;;;;;;;;;5023618;28;20061;-61
2021/05/13 16:06:03;;;;;;;4.38;1.55;;;;;;;;;;5013615;28;20050;-61
2021/05/13 16:08:48;;;;;;;6.53;1.75;;;;;;;;;;5008651;28;20049;-62
2021/05/13 16:11:35;;;;;;;4.88;1.52;;;;;;;;;;5032847;28;20504;-61
2021/05/13 16:14:22;;;;;;;3.83;1.60;;;;;;;;;;5023451;28;20054;-61
2021/05/13 16:17:07;;;;;;;3.17;1.20;;;;;;;;;;5013262;28;20089;-62
2021/05/13 16:19:52;;;;;;;4.32;1.17;;;;;;;;;;5013599;28;20049;-61
2021/05/13 16:22:37;;;;;;;1.95;1.20;;;;;;;;;;5012985;28;20053;-61
2021/05/13 16:25:23;;;;;;;3.13;1.33;;;;;;;;;;5027019;28;20045;-61
2021/05/13 16:28:08;;;;;;;3.42;1.58;;;;;;;;;;5018212;28;20053;-61
2021/05/13 16:30:53;;;;;;;2.22;1.02;;;;;;;;;;5012382;28;20046;-61
2021/05/13 16:33:38;;;;;;;2.00;0.95;;;;;;;;;;5014069;28;20034;-61
2021/05/13 16:36:24;;;;;;;2.65;0.90;;;;;;;;;;5032748;28;20045;-64
2021/05/13 16:39:09;;;;;;;1.95;0.98;;;;;;;;;;5021489;28;20042;-64
2021/05/13 16:41:54;;;;;;;2.90;1.00;;;;;;;;;;5021166;28;20516;-64
2021/05/13 16:44:39;;;;;;;2.33;1.10;;;;;;;;;;5022614;28;20038;-64